createdAt,value
2023-01-18T00:01:19.184Z,48.16
2023-01-18T00:03:49.002Z,48.05
2023-01-18T00:06:17.998Z,47.97
2023-01-18T00:08:46.327Z,47.88
2023-01-18T00:11:18.482Z,48.20
2023-01-18T00:13:47.876Z,48.11
2023-01-18T00:16:18.733Z,47.97
2023-01-18T00:18:53.629Z,47.83
2023-01-18T00:21:22.186Z,48.09
2023-01-18T00:23:50.441Z,48.04
2023-01-18T00:26:18.762Z,47.90
2023-01-18T00:28:47.075Z,48.03
2023-01-18T00:31:17.965Z,47.92
2023-01-18T00:33:47.259Z,47.73
2023-01-18T00:36:18.760Z,48.09
2023-01-18T00:38:52.299Z,47.92
2023-01-18T00:41:21.250Z,47.72
2023-01-18T00:43:49.115Z,47.87
2023-01-18T00:46:20.136Z,48.06
2023-01-18T00:48:48.505Z,47.64
2023-01-18T00:51:22.729Z,48.19
2023-01-18T00:53:51.741Z,48.10
2023-01-18T00:56:23.488Z,48.06
2023-01-18T00:58:51.910Z,47.68
2023-01-18T01:01:20.479Z,47.74
2023-01-18T01:04:06.134Z,47.54
2023-01-18T01:06:46.278Z,47.59
2023-01-18T01:09:17.932Z,47.88
2023-01-18T01:12:00.889Z,47.87
2023-01-18T01:14:46.431Z,47.80
2023-01-18T01:17:32.123Z,47.92
2023-01-18T01:20:17.706Z,47.94
2023-01-18T01:23:05.025Z,47.92
2023-01-18T01:25:50.822Z,47.88
2023-01-18T01:28:19.134Z,47.76
2023-01-18T01:30:47.483Z,47.81
2023-01-18T01:33:15.774Z,47.99
2023-01-18T01:35:44.296Z,47.98
2023-01-18T01:38:13.920Z,47.57
2023-01-18T01:40:42.208Z,47.75
2023-01-18T01:43:14.575Z,47.80
2023-01-18T01:45:43.205Z,47.71
2023-01-18T01:48:12.240Z,48.00
2023-01-18T01:50:41.804Z,47.93
2023-01-18T01:53:13.547Z,47.70
2023-01-18T01:55:42.515Z,47.96
2023-01-18T01:58:15.921Z,47.88
2023-01-18T02:00:45.099Z,47.98
2023-01-18T02:03:19.158Z,47.71
2023-01-18T02:05:50.357Z,48.03
2023-01-18T02:08:23.316Z,47.97
2023-01-18T02:10:52.255Z,47.85
2023-01-18T02:13:22.544Z,47.61
2023-01-18T02:16:02.292Z,47.93
2023-01-18T02:18:35.273Z,47.63
2023-01-18T02:21:17.195Z,47.86
2023-01-18T02:24:20.338Z,47.87
2023-01-18T02:27:02.562Z,47.51
2023-01-18T02:30:01.005Z,47.74
2023-01-18T02:32:44.102Z,47.93
2023-01-18T02:35:16.933Z,47.52
2023-01-18T02:37:57.617Z,47.77
2023-01-18T02:40:32.364Z,47.61
2023-01-18T02:43:20.524Z,47.79
2023-01-18T02:46:09.007Z,47.89
2023-01-18T02:48:40.549Z,48.06
2023-01-18T02:51:09.334Z,47.57
2023-01-18T02:53:42.268Z,47.79
2023-01-18T02:56:15.649Z,47.69
2023-01-18T02:58:48.338Z,48.22
2023-01-18T03:01:26.783Z,48.12
2023-01-18T03:03:59.693Z,48.09
2023-01-18T03:06:30.694Z,47.90
2023-01-18T03:09:01.403Z,48.01
2023-01-18T03:11:41.444Z,47.75
2023-01-18T03:14:21.739Z,47.96
2023-01-18T03:17:01.551Z,48.18
2023-01-18T03:20:03.447Z,48.11
2023-01-18T03:22:54.454Z,48.19
2023-01-18T03:25:28.207Z,48.31
2023-01-18T03:28:16.865Z,48.09
2023-01-18T03:31:04.413Z,47.96
2023-01-18T03:33:45.202Z,47.87
2023-01-18T03:36:20.740Z,48.29
2023-01-18T03:38:54.680Z,48.01
2023-01-18T03:41:26.847Z,48.31
2023-01-18T03:43:59.566Z,48.21
2023-01-18T03:46:31.683Z,48.07
2023-01-18T03:49:01.920Z,48.33
2023-01-18T03:51:47.286Z,48.02
2023-01-18T03:54:21.767Z,48.23
2023-01-18T03:56:55.004Z,48.10
2023-01-18T03:59:23.817Z,47.90
2023-01-18T04:01:52.173Z,48.01
2023-01-18T04:04:21.924Z,47.85
2023-01-18T04:06:50.322Z,48.00
2023-01-18T04:09:18.576Z,48.27
2023-01-18T04:11:46.880Z,48.24
2023-01-18T04:14:15.377Z,47.94
2023-01-18T04:16:43.664Z,48.12
2023-01-18T04:19:12.070Z,48.09
2023-01-18T04:21:41.713Z,48.42
2023-01-18T04:24:11.311Z,48.43
2023-01-18T04:26:39.840Z,48.53
2023-01-18T04:29:09.099Z,48.21
2023-01-18T04:31:37.505Z,48.57
2023-01-18T04:34:05.889Z,48.33
2023-01-18T04:36:34.188Z,48.26
2023-01-18T04:39:03.896Z,48.64
2023-01-18T04:41:32.260Z,48.48
2023-01-18T04:44:00.641Z,48.41
2023-01-18T04:46:29.011Z,48.46
2023-01-18T04:48:57.330Z,48.58
2023-01-18T04:51:27.284Z,48.41
2023-01-18T04:53:55.512Z,48.32
2023-01-18T04:56:25.312Z,48.46
2023-01-18T04:58:54.780Z,48.62
2023-01-18T05:01:24.078Z,48.75
2023-01-18T05:03:54.283Z,48.64
2023-01-18T05:06:24.132Z,48.76
2023-01-18T05:08:53.125Z,48.57
2023-01-18T05:11:23.210Z,48.96
2023-01-18T05:13:52.948Z,48.86
2023-01-18T05:16:23.740Z,49.23
2023-01-18T05:18:52.310Z,49.20
2023-01-18T05:21:21.157Z,49.02
2023-01-18T05:23:49.475Z,49.27
2023-01-18T05:26:21.070Z,49.03
2023-01-18T05:28:50.331Z,49.09
2023-01-18T05:31:21.340Z,48.89
2023-01-18T05:33:49.912Z,49.24
2023-01-18T05:36:18.532Z,49.15
2023-01-18T05:38:48.141Z,48.98
2023-01-18T05:41:16.450Z,48.96
2023-01-18T05:43:44.720Z,48.98
2023-01-18T05:46:12.982Z,49.15
2023-01-18T05:48:42.566Z,48.75
2023-01-18T05:51:12.347Z,48.92
2023-01-18T05:53:41.202Z,49.03
2023-01-18T05:56:10.865Z,48.73
2023-01-18T05:58:39.435Z,48.60
2023-01-18T06:01:08.795Z,48.73
2023-01-18T06:03:37.343Z,48.83
2023-01-18T06:06:08.852Z,49.08
2023-01-18T06:08:37.264Z,49.02
2023-01-18T06:11:06.505Z,48.97
2023-01-18T06:13:34.754Z,48.86
2023-01-18T06:16:03.446Z,48.81
2023-01-18T06:18:33.841Z,49.09
2023-01-18T06:21:07.771Z,48.91
2023-01-18T06:23:36.304Z,49.03
2023-01-18T06:26:05.130Z,49.19
2023-01-18T06:28:33.458Z,49.13
2023-01-18T06:31:04.801Z,49.02
2023-01-18T06:33:33.153Z,48.90
2023-01-18T06:36:01.919Z,48.86
2023-01-18T06:38:31.715Z,48.97
2023-01-18T06:41:00.232Z,48.90
2023-01-18T06:43:29.315Z,49.01
2023-01-18T06:45:58.503Z,49.21
2023-01-18T06:48:28.644Z,49.17
2023-01-18T06:50:58.869Z,49.12
2023-01-18T06:53:27.870Z,48.92
2023-01-18T06:55:59.877Z,49.10
2023-01-18T06:58:31.013Z,49.20
2023-01-18T07:01:01.184Z,49.21
2023-01-18T07:03:30.901Z,49.11
2023-01-18T07:06:01.903Z,49.27
2023-01-18T07:08:32.083Z,49.29
2023-01-18T07:11:06.855Z,49.48
2023-01-18T07:13:35.581Z,49.33
2023-01-18T07:16:03.891Z,49.35
2023-01-18T07:18:32.425Z,49.61
2023-01-18T07:21:03.422Z,49.69
2023-01-18T07:23:32.398Z,49.92
2023-01-18T07:26:06.882Z,50.15
2023-01-18T07:28:36.910Z,50.29
2023-01-18T07:31:08.095Z,50.40
2023-01-18T07:33:36.969Z,50.72
2023-01-18T07:36:09.562Z,50.91
2023-01-18T07:38:38.730Z,51.00
2023-01-18T07:41:14.247Z,51.08
2023-01-18T07:43:44.731Z,51.48
2023-01-18T07:46:15.877Z,51.43
2023-01-18T07:48:44.603Z,51.64
2023-01-18T07:51:13.284Z,51.47
2023-01-18T07:53:42.404Z,51.47
2023-01-18T07:56:15.666Z,51.53
2023-01-18T07:58:44.657Z,51.62
2023-01-18T08:01:16.362Z,51.52
2023-01-18T08:03:47.162Z,51.57
2023-01-18T08:06:17.781Z,51.60
2023-01-18T08:08:46.469Z,51.95
2023-01-18T08:11:16.114Z,51.94
2023-01-18T08:13:44.385Z,52.15
2023-01-18T08:16:13.649Z,52.09
2023-01-18T08:18:42.660Z,52.02
2023-01-18T08:21:12.394Z,52.04
2023-01-18T08:23:41.075Z,52.17
2023-01-18T08:26:12.842Z,52.16
2023-01-18T08:28:44.750Z,51.98
2023-01-18T08:31:15.882Z,51.98
2023-01-18T08:33:47.625Z,52.09
2023-01-18T08:36:18.069Z,51.92
2023-01-18T08:38:50.288Z,52.15
2023-01-18T08:41:18.844Z,52.18
2023-01-18T08:43:50.863Z,52.19
2023-01-18T08:46:19.533Z,52.10
2023-01-18T08:48:51.362Z,52.08
2023-01-18T08:51:20.486Z,52.66
2023-01-18T08:53:49.600Z,52.51
2023-01-18T08:56:17.845Z,52.91
2023-01-18T08:58:48.057Z,53.37
2023-01-18T09:01:16.442Z,53.44
2023-01-18T09:03:45.067Z,53.57
2023-01-18T09:06:13.340Z,53.45
2023-01-18T09:08:41.652Z,53.69
2023-01-18T09:11:11.878Z,53.15
2023-01-18T09:13:58.585Z,53.77
2023-01-18T09:16:29.972Z,53.59
2023-01-18T09:18:58.643Z,53.89
2023-01-18T09:21:29.039Z,53.49
2023-01-18T09:23:57.924Z,53.14
2023-01-18T09:26:27.744Z,52.47
2023-01-18T09:28:56.359Z,52.09
2023-01-18T09:31:30.740Z,51.17
2023-01-18T09:34:17.486Z,51.13
2023-01-18T09:36:46.829Z,50.72
2023-01-18T09:39:15.102Z,50.88
2023-01-18T09:41:47.018Z,51.25
2023-01-18T09:44:23.381Z,50.61
2023-01-18T09:46:56.414Z,50.10
2023-01-18T09:49:31.180Z,48.97
2023-01-18T09:52:13.402Z,48.48
2023-01-18T09:54:49.468Z,47.96
2023-01-18T09:57:38.507Z,47.97
2023-01-18T10:00:20.972Z,47.99
2023-01-18T10:02:56.144Z,47.87
2023-01-18T10:05:29.583Z,48.10
2023-01-18T10:08:04.997Z,47.82
2023-01-18T10:10:39.669Z,47.76
2023-01-18T10:13:37.965Z,47.93
2023-01-18T10:16:14.926Z,47.88
2023-01-18T10:18:48.135Z,47.78
2023-01-18T10:21:27.096Z,47.79
2023-01-18T10:24:30.659Z,48.06
2023-01-18T10:27:16.842Z,48.00
2023-01-18T10:30:02.754Z,47.60
2023-01-18T10:32:33.499Z,47.74
2023-01-18T10:35:09.052Z,47.79
2023-01-18T10:37:45.311Z,47.88
2023-01-18T10:40:16.016Z,47.74
2023-01-18T10:42:48.315Z,47.54
2023-01-18T10:45:21.633Z,47.68
2023-01-18T10:47:50.239Z,47.83
2023-01-18T10:50:22.945Z,47.79
2023-01-18T10:52:51.405Z,47.87
2023-01-18T10:55:21.306Z,47.67
2023-01-18T10:57:53.498Z,48.02
2023-01-18T11:00:26.501Z,47.91
2023-01-18T11:02:57.427Z,48.36
2023-01-18T11:05:31.733Z,48.59
2023-01-18T11:08:15.298Z,48.51
2023-01-18T11:10:44.536Z,48.70
2023-01-18T11:13:28.685Z,48.73
2023-01-18T11:16:17.664Z,48.47
2023-01-18T11:19:01.970Z,48.11
2023-01-18T11:21:45.754Z,47.92
2023-01-18T11:24:18.451Z,47.46
2023-01-18T11:26:59.028Z,46.98
2023-01-18T11:29:30.890Z,46.84
2023-01-18T11:32:05.417Z,46.93
2023-01-18T11:34:37.538Z,46.88
2023-01-18T11:37:31.583Z,46.98
2023-01-18T11:40:00.442Z,46.92
2023-01-18T11:42:31.618Z,46.88
2023-01-18T11:45:16.418Z,46.87
2023-01-18T11:47:58.772Z,46.83
2023-01-18T11:50:35.844Z,46.52
2023-01-18T11:53:19.596Z,46.85
2023-01-18T11:55:56.318Z,46.77
2023-01-18T11:58:28.413Z,46.94
2023-01-18T12:01:23.832Z,46.87
2023-01-18T12:04:00.392Z,46.73
2023-01-18T12:06:41.478Z,46.68
2023-01-18T12:09:33.525Z,47.14
2023-01-18T12:12:27.283Z,46.79
2023-01-18T12:15:17.616Z,46.80
2023-01-18T12:18:12.824Z,46.87
2023-01-18T12:20:55.838Z,46.62
2023-01-18T12:24:00.290Z,46.27
2023-01-18T12:26:49.438Z,46.15
2023-01-18T12:30:03.551Z,46.29
2023-01-18T12:33:21.457Z,46.15
2023-01-18T12:36:12.662Z,46.07
2023-01-18T12:38:48.473Z,46.22
2023-01-18T12:41:53.112Z,46.30
2023-01-18T12:44:52.853Z,46.24
2023-01-18T12:47:38.128Z,46.29
2023-01-18T12:50:25.178Z,46.06
2023-01-18T12:52:57.603Z,46.12
2023-01-18T12:55:31.652Z,45.92
2023-01-18T12:58:03.677Z,45.79
2023-01-18T13:00:37.759Z,45.86
2023-01-18T13:03:12.777Z,45.93
2023-01-18T13:05:52.362Z,45.40
2023-01-18T13:08:35.917Z,45.76
2023-01-18T13:11:10.650Z,45.80
2023-01-18T13:13:45.039Z,45.91
2023-01-18T13:16:32.408Z,45.87
2023-01-18T13:19:05.570Z,45.98
2023-01-18T13:22:00.599Z,45.69
2023-01-18T13:24:48.929Z,46.04
2023-01-18T13:27:18.775Z,46.01
2023-01-18T13:29:48.571Z,46.23
2023-01-18T13:32:30.756Z,46.30
2023-01-18T13:35:19.114Z,45.99
2023-01-18T13:37:52.593Z,45.89
2023-01-18T13:40:39.180Z,46.32
2023-01-18T13:43:31.147Z,46.10
2023-01-18T13:46:18.021Z,46.44
2023-01-18T13:48:53.321Z,46.53
2023-01-18T13:51:53.438Z,46.31
2023-01-18T13:54:58.933Z,46.58
2023-01-18T13:57:27.198Z,46.68
2023-01-18T13:59:55.683Z,46.62
2023-01-18T14:02:32.052Z,46.33
2023-01-18T14:05:08.275Z,46.63
2023-01-18T14:07:45.272Z,46.65
2023-01-18T14:10:30.418Z,46.28
2023-01-18T14:13:01.284Z,46.58
2023-01-18T14:15:46.602Z,46.32
2023-01-18T14:18:23.409Z,46.25
2023-01-18T14:21:19.128Z,46.48
2023-01-18T14:24:14.582Z,46.30
2023-01-18T14:26:44.817Z,46.16
2023-01-18T14:29:18.625Z,46.20
2023-01-18T14:31:51.543Z,46.11
2023-01-18T14:34:38.728Z,46.05
2023-01-18T14:37:27.129Z,46.32
2023-01-18T14:40:27.458Z,46.14
2023-01-18T14:42:58.116Z,46.06
2023-01-18T14:45:30.689Z,46.00
2023-01-18T14:48:01.871Z,46.01
2023-01-18T14:50:38.969Z,45.78
2023-01-18T14:53:12.214Z,45.92
2023-01-18T14:55:40.559Z,45.77
2023-01-18T14:58:15.822Z,45.86
2023-01-18T15:00:47.479Z,45.87
2023-01-18T15:03:24.031Z,45.65
2023-01-18T15:06:02.842Z,46.03
2023-01-18T15:08:34.575Z,45.57
2023-01-18T15:11:05.071Z,45.94
2023-01-18T15:13:47.360Z,45.88
2023-01-18T15:16:19.986Z,45.76
2023-01-18T15:18:50.033Z,46.16
2023-01-18T15:21:23.545Z,45.58
2023-01-18T15:23:54.331Z,45.70
2023-01-18T15:26:36.823Z,45.79
2023-01-18T15:29:26.308Z,45.64
2023-01-18T15:31:57.216Z,45.47
2023-01-18T15:34:31.313Z,45.66
2023-01-18T15:37:03.182Z,45.68
2023-01-18T15:39:32.968Z,45.51
2023-01-18T15:42:07.206Z,45.87
2023-01-18T15:44:42.503Z,45.84
2023-01-18T15:47:23.691Z,45.61
2023-01-18T15:49:54.408Z,45.78
2023-01-18T15:52:40.121Z,46.14
2023-01-18T15:55:20.010Z,46.24
2023-01-18T15:58:01.413Z,46.04
2023-01-18T16:00:34.773Z,46.23
2023-01-18T16:03:04.544Z,46.22
2023-01-18T16:05:33.516Z,46.15
2023-01-18T16:08:19.281Z,46.59
2023-01-18T16:10:53.959Z,46.25
2023-01-18T16:13:33.588Z,46.48
2023-01-18T16:16:20.697Z,46.47
2023-01-18T16:18:59.483Z,46.44
2023-01-18T16:21:40.463Z,46.48
2023-01-18T16:24:19.133Z,46.54
2023-01-18T16:26:48.507Z,46.52
2023-01-18T16:29:17.014Z,46.85
2023-01-18T16:31:45.643Z,46.59
2023-01-18T16:34:24.680Z,46.71
2023-01-18T16:36:54.747Z,46.79
2023-01-18T16:39:24.558Z,47.03
2023-01-18T16:41:57.870Z,46.91
2023-01-18T16:44:27.880Z,46.80
2023-01-18T16:46:56.157Z,46.88
2023-01-18T16:49:24.435Z,47.02
2023-01-18T16:51:52.727Z,46.99
2023-01-18T16:54:21.173Z,46.62
2023-01-18T16:56:50.891Z,46.69
2023-01-18T16:59:22.787Z,46.81
2023-01-18T17:01:51.673Z,46.93
2023-01-18T17:04:20.126Z,47.12
2023-01-18T17:06:48.458Z,46.76
2023-01-18T17:09:22.743Z,46.88
2023-01-18T17:11:53.113Z,46.90
2023-01-18T17:14:22.427Z,46.91
2023-01-18T17:16:51.002Z,47.06
2023-01-18T17:19:22.091Z,47.16
2023-01-18T17:21:51.722Z,47.32
2023-01-18T17:24:22.129Z,47.15
2023-01-18T17:26:52.054Z,47.19
2023-01-18T17:29:22.032Z,47.11
2023-01-18T17:31:53.111Z,47.00
2023-01-18T17:34:28.047Z,47.17
2023-01-18T17:36:59.482Z,46.99
2023-01-18T17:39:42.600Z,47.23
2023-01-18T17:42:26.034Z,47.11
2023-01-18T17:45:03.829Z,47.15
2023-01-18T17:47:32.956Z,47.43
2023-01-18T17:50:08.547Z,47.41
2023-01-18T17:52:37.041Z,47.35
2023-01-18T17:55:07.135Z,47.58
2023-01-18T17:57:37.095Z,47.51
2023-01-18T18:00:08.298Z,47.28
2023-01-18T18:02:36.887Z,47.31
2023-01-18T18:05:06.263Z,47.59
2023-01-18T18:07:34.957Z,47.37
2023-01-18T18:10:03.858Z,47.48
2023-01-18T18:12:34.425Z,47.56
2023-01-18T18:15:05.676Z,47.55
2023-01-18T18:17:35.788Z,47.42
2023-01-18T18:20:04.613Z,47.70
2023-01-18T18:22:33.889Z,47.45
2023-01-18T18:25:02.343Z,47.84
2023-01-18T18:27:44.378Z,47.68
2023-01-18T18:30:15.694Z,47.82
2023-01-18T18:32:44.107Z,47.77
2023-01-18T18:35:24.524Z,47.90
2023-01-18T18:37:55.751Z,47.89
2023-01-18T18:40:25.135Z,47.82
2023-01-18T18:43:01.791Z,47.86
2023-01-18T18:45:33.334Z,47.60
2023-01-18T18:48:02.286Z,47.55
2023-01-18T18:50:32.029Z,47.87
2023-01-18T18:53:00.909Z,47.95
2023-01-18T18:55:29.637Z,47.92
2023-01-18T18:57:58.086Z,47.68
2023-01-18T19:00:27.463Z,47.69
2023-01-18T19:03:01.676Z,47.70
2023-01-18T19:05:32.962Z,47.86
2023-01-18T19:08:02.007Z,47.66
2023-01-18T19:10:30.534Z,47.65
2023-01-18T19:12:59.957Z,48.03
2023-01-18T19:15:29.220Z,48.00
2023-01-18T19:17:59.117Z,47.98
2023-01-18T19:20:27.654Z,48.17
2023-01-18T19:22:56.029Z,48.00
2023-01-18T19:25:24.584Z,48.06
2023-01-18T19:27:52.952Z,48.16
2023-01-18T19:30:21.786Z,48.18
2023-01-18T19:32:51.703Z,48.13
2023-01-18T19:35:22.688Z,47.97
2023-01-18T19:37:51.088Z,47.89
2023-01-18T19:40:20.479Z,48.19
2023-01-18T19:42:56.027Z,48.38
2023-01-18T19:45:28.821Z,48.17
2023-01-18T19:47:59.698Z,48.11
2023-01-18T19:50:31.189Z,48.17
2023-01-18T19:53:00.149Z,48.17
2023-01-18T19:55:28.950Z,48.42
2023-01-18T19:58:00.383Z,48.39
2023-01-18T20:00:30.500Z,48.37
2023-01-18T20:02:59.973Z,48.06
2023-01-18T20:05:30.250Z,48.37
2023-01-18T20:07:58.656Z,47.96
2023-01-18T20:10:27.297Z,48.30
2023-01-18T20:12:56.276Z,48.33
2023-01-18T20:15:24.626Z,48.10
2023-01-18T20:17:53.000Z,48.44
2023-01-18T20:20:31.736Z,48.31
2023-01-18T20:23:04.456Z,48.38
2023-01-18T20:25:33.645Z,48.33
2023-01-18T20:28:02.382Z,48.30
2023-01-18T20:30:30.892Z,48.48
2023-01-18T20:32:59.626Z,48.49
2023-01-18T20:35:28.628Z,48.46
2023-01-18T20:37:57.231Z,48.33
2023-01-18T20:40:27.261Z,48.53
2023-01-18T20:42:55.640Z,48.38
2023-01-18T20:45:24.082Z,48.34
2023-01-18T20:47:52.405Z,48.56
2023-01-18T20:50:23.206Z,48.39
2023-01-18T20:52:52.148Z,48.43
2023-01-18T20:55:21.044Z,49.09
2023-01-18T20:57:52.706Z,48.87
2023-01-18T21:00:22.089Z,48.61
2023-01-18T21:02:50.781Z,49.07
2023-01-18T21:05:19.368Z,48.86
2023-01-18T21:07:47.694Z,48.96
2023-01-18T21:10:16.044Z,48.99
2023-01-18T21:12:44.403Z,48.97
2023-01-18T21:15:14.489Z,48.86
2023-01-18T21:17:42.815Z,48.86
2023-01-18T21:20:12.897Z,48.93
2023-01-18T21:22:41.190Z,48.99
2023-01-18T21:25:10.459Z,48.84
2023-01-18T21:27:43.249Z,48.67
2023-01-18T21:30:16.671Z,48.60
2023-01-18T21:32:45.423Z,48.99
2023-01-18T21:35:14.330Z,48.75
2023-01-18T21:37:43.273Z,48.99
2023-01-18T21:40:13.131Z,48.78
2023-01-18T21:42:58.909Z,48.91
2023-01-18T21:45:45.900Z,49.19
2023-01-18T21:48:14.308Z,48.91
2023-01-18T21:51:05.454Z,49.04
2023-01-18T21:53:51.230Z,48.98
2023-01-18T21:56:19.671Z,48.99
2023-01-18T21:58:54.092Z,49.33
2023-01-18T22:01:27.076Z,48.89
2023-01-18T22:04:13.847Z,49.10
2023-01-18T22:06:42.253Z,48.87
2023-01-18T22:09:10.539Z,48.83
2023-01-18T22:11:38.955Z,49.15
2023-01-18T22:14:09.273Z,49.10
2023-01-18T22:16:39.404Z,48.88
2023-01-18T22:19:08.236Z,49.22
2023-01-18T22:21:36.561Z,48.97
2023-01-18T22:24:05.539Z,49.13
2023-01-18T22:26:36.260Z,49.02
2023-01-18T22:29:04.901Z,49.15
2023-01-18T22:31:33.495Z,48.88
2023-01-18T22:34:05.418Z,49.22
2023-01-18T22:36:34.282Z,49.03
2023-01-18T22:39:02.665Z,49.12
2023-01-18T22:41:31.344Z,49.19
2023-01-18T22:43:59.729Z,48.75
2023-01-18T22:46:28.857Z,48.81
2023-01-18T22:48:57.188Z,49.00
2023-01-18T22:51:27.087Z,48.95
2023-01-18T22:53:56.412Z,48.84
2023-01-18T22:56:26.931Z,48.86
2023-01-18T22:58:55.357Z,48.77
2023-01-18T23:01:26.042Z,49.06
2023-01-18T23:03:57.297Z,49.08
2023-01-18T23:06:28.999Z,49.00
2023-01-18T23:08:57.884Z,48.85
2023-01-18T23:11:28.964Z,49.00
2023-01-18T23:14:16.918Z,49.08
2023-01-18T23:17:02.933Z,48.68
2023-01-18T23:19:31.652Z,49.06
2023-01-18T23:22:06.761Z,49.04
2023-01-18T23:24:36.067Z,49.15
2023-01-18T23:27:04.826Z,49.18
2023-01-18T23:29:33.260Z,49.20
2023-01-18T23:32:01.664Z,49.03
2023-01-18T23:34:30.068Z,49.15
2023-01-18T23:36:58.395Z,49.16
2023-01-18T23:39:45.576Z,49.02
2023-01-18T23:42:31.232Z,48.97
2023-01-18T23:45:16.665Z,49.26
2023-01-18T23:48:02.656Z,49.33
2023-01-18T23:50:48.627Z,49.38
2023-01-18T23:53:34.420Z,49.43
2023-01-18T23:56:04.138Z,49.24
2023-01-18T23:58:32.361Z,49.42
